Time;durP1;ratioP1;P1;durP2;ratioP2;P2;SDS_P1;SDS_P2;PMS_P1;PMS_P2;Temp;Humidity;BMP_temperature;BMP_pressure;BME280_temperature;BME280_humidity;BME280_pressure;Samples;Min_cycle;Max_cycle;Signal;HPM_P1;HPM_P2
2021/07/21 00:01:16;;;;;;;526.78;280.48;;;13.70;99.90;;;;;;8283534;28;20030;-62
2021/07/21 00:05:19;;;;;;;527.38;284.63;;;13.70;99.90;;;;;;8294721;28;20033;-62
2021/07/21 00:09:19;;;;;;;527.85;284.65;;;13.70;99.90;;;;;;8294827;28;20072;-62
2021/07/21 00:13:32;;;;;;;546.17;291.90;;;13.60;99.90;;;;;;8294547;28;20026;-63
2021/07/21 00:17:34;;;;;;;530.10;282.88;;;13.60;99.90;;;;;;8268109;28;20038;-62
2021/07/21 00:21:35;;;;;;;534.67;286.95;;;13.70;99.90;;;;;;8293685;28;20488;-62
2021/07/21 00:25:35;;;;;;;527.17;281.58;;;13.50;99.90;;;;;;8294137;28;20038;-62
2021/07/21 00:29:36;;;;;;;540.40;288.63;;;13.50;99.90;;;;;;8294154;28;20492;-62
2021/07/21 00:33:38;;;;;;;513.53;269.75;;;13.60;99.90;;;;;;8293775;28;20072;-62
2021/07/21 00:37:38;;;;;;;519.75;275.33;;;13.60;99.90;;;;;;8292859;28;20026;-62
2021/07/21 00:41:39;;;;;;;508.65;267.35;;;13.40;99.90;;;;;;8293413;28;20034;-62
2021/07/21 00:45:40;;;;;;;526.42;277.90;;;13.20;99.90;;;;;;8293481;28;20018;-62
2021/07/21 00:49:41;;;;;;;529.13;277.52;;;12.90;99.90;;;;;;8284306;28;20534;-62
2021/07/21 00:53:42;;;;;;;535.88;276.88;;;12.90;99.90;;;;;;8293343;28;20022;-62
2021/07/21 00:57:42;;;;;;;519.25;275.73;;;13.10;99.90;;;;;;8275457;28;20148;-62
2021/07/21 01:01:43;;;;;;;499.20;262.35;;;12.80;99.90;;;;;;8292639;28;20034;-62
2021/07/21 01:05:44;;;;;;;492.40;258.30;;;12.80;99.90;;;;;;8284979;28;20030;-62
2021/07/21 01:09:45;;;;;;;491.58;259.98;;;12.70;99.90;;;;;;8291602;28;20080;-62
2021/07/21 01:13:52;;;;;;;484.35;249.65;;;13.00;99.90;;;;;;8292132;28;20033;-62
2021/07/21 01:17:57;;;;;;;492.88;258.50;;;12.70;99.90;;;;;;8275270;28;20037;-62
2021/07/21 01:22:16;;;;;;;496.83;257.30;;;12.90;99.90;;;;;;8292828;28;20022;-62
2021/07/21 01:26:26;;;;;;;498.20;256.65;;;12.80;99.90;;;;;;8260302;28;20037;-62
2021/07/21 01:30:29;;;;;;;;;;;12.50;99.90;;;;;;8260333;28;20077;-62
2021/07/21 01:34:31;;;;;;;525.42;264.88;;;12.60;99.90;;;;;;8276234;28;20390;-62
2021/07/21 01:38:35;;;;;;;542.35;273.23;;;12.60;99.90;;;;;;8292649;28;20125;-62
2021/07/21 01:42:37;;;;;;;521.25;265.60;;;12.40;99.90;;;;;;8291558;28;20056;-62
2021/07/21 01:46:39;;;;;;;551.90;277.75;;;12.30;99.90;;;;;;8290488;28;20555;-62
2021/07/21 01:50:41;;;;;;;553.33;276.17;;;12.50;99.90;;;;;;8259700;28;20460;-61
2021/07/21 01:54:43;;;;;;;542.38;270.27;;;12.40;99.90;;;;;;8277081;28;20476;-62
2021/07/21 01:58:46;;;;;;;525.50;270.70;;;12.50;99.90;;;;;;8292004;28;20050;-62
2021/07/21 02:02:52;;;;;;;544.38;270.02;;;12.60;99.90;;;;;;8291985;28;20097;-62
2021/07/21 02:06:54;;;;;;;529.60;265.85;;;12.60;99.90;;;;;;8274648;28;20025;-62
2021/07/21 02:10:58;;;;;;;548.75;274.50;;;12.40;99.90;;;;;;8264788;28;20022;-61
2021/07/21 02:14:59;;;;;;;515.72;262.77;;;12.30;99.90;;;;;;8292422;28;20455;-61
2021/07/21 02:19:00;;;;;;;548.50;275.33;;;12.20;99.90;;;;;;8297411;28;20026;-62
2021/07/21 02:23:01;;;;;;;549.30;275.75;;;12.10;99.90;;;;;;8298274;28;20025;-62
2021/07/21 02:27:02;;;;;;;553.63;278.38;;;12.10;99.90;;;;;;8298077;28;20029;-61
2021/07/21 02:31:10;;;;;;;557.63;280.98;;;12.00;99.90;;;;;;8297585;28;20037;-61
2021/07/21 02:35:11;;;;;;;557.00;281.85;;;12.00;99.90;;;;;;8297900;28;20033;-62
2021/07/21 02:39:11;;;;;;;553.05;277.17;;;12.40;99.90;;;;;;8297653;28;20030;-62
2021/07/21 02:43:12;;;;;;;559.58;278.05;;;12.30;99.90;;;;;;8297767;28;20029;-61
2021/07/21 02:47:13;;;;;;;555.58;282.20;;;12.10;99.90;;;;;;8289837;28;20467;-62
2021/07/21 02:51:44;;;;;;;559.80;282.40;;;11.90;99.90;;;;;;8295543;28;20041;-61
2021/07/21 02:55:51;;;;;;;552.72;280.85;;;11.80;99.90;;;;;;8238311;28;20548;-62
2021/07/21 02:59:55;;;;;;;554.25;277.48;;;11.50;99.90;;;;;;8264572;28;20120;-61
2021/07/21 03:03:57;;;;;;;563.60;300.52;;;11.60;99.90;;;;;;8268444;28;20034;-62
2021/07/21 03:07:59;;;;;;;544.92;267.95;;;11.60;99.90;;;;;;8277322;28;20030;-62
2021/07/21 03:12:03;;;;;;;540.85;265.55;;;11.60;99.90;;;;;;8278368;28;20022;-62
2021/07/21 03:16:05;;;;;;;515.67;253.88;;;11.60;99.90;;;;;;8295642;28;20492;-62
2021/07/21 03:20:07;;;;;;;512.33;256.95;;;11.50;99.90;;;;;;8278678;28;20026;-62
2021/07/21 03:24:08;;;;;;;528.80;257.88;;;11.50;99.90;;;;;;8295635;28;20511;-62
2021/07/21 03:28:09;;;;;;;510.15;260.15;;;11.60;99.90;;;;;;8277732;28;20180;-62
2021/07/21 03:32:10;;;;;;;534.65;261.50;;;11.30;99.90;;;;;;8295767;28;20029;-62
2021/07/21 03:36:11;;;;;;;509.40;254.20;;;11.40;99.90;;;;;;8295771;28;20027;-62
2021/07/21 03:40:13;;;;;;;497.02;254.40;;;11.50;99.90;;;;;;8295380;28;20072;-62
2021/07/21 03:44:17;;;;;;;527.67;255.90;;;11.20;99.90;;;;;;8295608;28;20156;-62
2021/07/21 03:48:21;;;;;;;512.10;256.08;;;11.30;99.90;;;;;;8295444;28;20080;-62
2021/07/21 03:52:23;;;;;;;545.83;259.40;;;11.40;99.90;;;;;;8294825;28;20029;-62
2021/07/21 03:56:25;;;;;;;537.70;261.55;;;11.30;99.90;;;;;;8295115;28;20038;-62
2021/07/21 04:00:26;;;;;;;511.55;258.75;;;11.40;99.90;;;;;;8286615;28;20034;-62
2021/07/21 04:04:27;;;;;;;505.15;271.27;;;11.40;99.90;;;;;;8294736;28;20030;-62
2021/07/21 04:08:28;;;;;;;509.33;268.08;;;11.40;99.90;;;;;;8294404;28;20034;-62
2021/07/21 04:12:29;;;;;;;516.45;284.02;;;11.30;99.90;;;;;;8294208;28;20076;-62
2021/07/21 04:16:33;;;;;;;529.60;275.02;;;11.40;99.90;;;;;;8284920;28;20050;-61
2021/07/21 04:20:35;;;;;;;541.67;277.67;;;11.50;99.90;;;;;;8279166;28;20052;-62
2021/07/21 04:24:36;;;;;;;523.85;259.77;;;11.40;99.90;;;;;;8270302;28;20030;-62
2021/07/21 04:28:40;;;;;;;507.92;263.02;;;11.40;99.90;;;;;;8263720;28;20516;-62
2021/07/21 04:32:41;;;;;;;508.02;261.52;;;11.50;99.90;;;;;;8293369;28;20389;-62
2021/07/21 04:36:42;;;;;;;515.67;265.70;;;11.60;99.90;;;;;;8275783;28;20109;-63
2021/07/21 04:40:44;;;;;;;517.45;265.23;;;11.70;99.90;;;;;;8267829;28;20037;-62
2021/07/21 04:44:46;;;;;;;504.65;263.08;;;11.80;99.90;;;;;;8278460;28;20076;-66
2021/07/21 04:48:47;;;;;;;510.20;274.58;;;11.90;99.90;;;;;;8261546;28;20038;-66
2021/07/21 04:52:48;;;;;;;520.97;269.58;;;12.10;99.90;;;;;;8259399;28;20096;-65
2021/07/21 04:56:49;;;;;;;531.70;270.45;;;12.40;99.90;;;;;;8281020;28;20114;-66
2021/07/21 05:00:51;;;;;;;522.63;274.45;;;12.50;99.90;;;;;;8286078;28;20030;-66
2021/07/21 05:04:52;;;;;;;510.60;269.88;;;12.80;99.90;;;;;;8288852;28;20671;-68
2021/07/21 05:08:53;;;;;;;508.98;271.58;;;13.30;99.90;;;;;;8270957;28;20243;-65
2021/07/21 05:12:53;;;;;;;541.80;300.20;;;13.60;99.90;;;;;;8267120;28;20036;-66
2021/07/21 05:16:54;;;;;;;559.65;309.80;;;14.00;99.90;;;;;;8243852;28;20034;-66
2021/07/21 05:20:54;;;;;;;573.55;334.05;;;14.50;99.90;;;;;;8263147;28;20030;-66
2021/07/21 05:24:55;;;;;;;552.17;310.33;;;15.20;99.90;;;;;;8289756;28;20029;-66
2021/07/21 05:28:57;;;;;;;535.58;307.73;;;15.60;99.90;;;;;;8292275;28;20502;-67
2021/07/21 05:32:58;;;;;;;566.90;338.58;;;15.70;99.90;;;;;;8292104;28;20021;-67
2021/07/21 05:36:58;;;;;;;565.30;335.90;;;15.90;99.90;;;;;;8289274;28;20053;-67
2021/07/21 05:40:59;;;;;;;576.85;357.73;;;16.10;99.90;;;;;;8290638;28;20088;-68
2021/07/21 05:45:00;;;;;;;578.95;362.02;;;16.30;99.90;;;;;;8291480;28;20029;-66
2021/07/21 05:49:00;;;;;;;583.10;368.30;;;16.50;99.90;;;;;;8266190;28;20052;-66
2021/07/21 05:53:02;;;;;;;583.03;375.05;;;16.70;99.90;;;;;;8276858;28;20034;-66
2021/07/21 05:57:04;;;;;;;590.58;385.33;;;16.80;99.90;;;;;;8269636;28;20121;-65
2021/07/21 06:01:05;;;;;;;586.20;384.50;;;17.10;99.90;;;;;;8298356;28;20065;-67
2021/07/21 06:05:07;;;;;;;585.28;399.10;;;17.40;99.90;;;;;;8295308;28;20113;-63
2021/07/21 06:09:08;;;;;;;558.70;356.92;;;17.60;99.90;;;;;;8289503;28;20084;-63
2021/07/21 06:13:11;;;;;;;589.00;404.58;;;17.60;99.90;;;;;;8297777;28;20030;-63
2021/07/21 06:17:12;;;;;;;594.28;425.35;;;18.00;99.90;;;;;;8277200;28;20810;-64
2021/07/21 06:21:13;;;;;;;595.83;438.10;;;18.30;99.90;;;;;;8298276;28;20484;-63
2021/07/21 06:25:14;;;;;;;601.22;450.33;;;18.30;99.90;;;;;;8278144;28;20053;-63
2021/07/21 06:29:15;;;;;;;601.90;455.52;;;18.40;99.90;;;;;;8247753;28;20023;-63
2021/07/21 06:33:18;;;;;;;601.10;469.17;;;18.60;99.90;;;;;;8288665;28;20111;-63
2021/07/21 06:37:21;;;;;;;604.42;477.42;;;19.00;99.90;;;;;;8297574;28;20026;-64
2021/07/21 06:41:22;;;;;;;602.90;473.90;;;18.90;99.90;;;;;;8275328;28;20030;-63
2021/07/21 06:45:22;;;;;;;603.65;482.55;;;19.00;99.90;;;;;;8294594;28;20048;-63
2021/07/21 06:49:23;;;;;;;605.92;495.02;;;19.20;99.90;;;;;;8264238;28;20101;-63
2021/07/21 06:53:24;;;;;;;603.30;492.38;;;19.50;99.90;;;;;;8278236;28;20051;-63
2021/07/21 06:57:25;;;;;;;609.33;506.73;;;19.70;99.90;;;;;;8264513;28;20044;-64
2021/07/21 07:01:26;;;;;;;604.53;506.30;;;19.90;99.90;;;;;;8275559;28;20038;-63
2021/07/21 07:05:27;;;;;;;607.83;514.78;;;20.00;99.90;;;;;;8282775;28;20072;-63
2021/07/21 07:09:28;;;;;;;605.95;514.05;;;20.30;99.90;;;;;;8281437;28;20500;-63
2021/07/21 07:13:28;;;;;;;603.88;514.03;;;20.50;99.90;;;;;;8275496;28;20039;-63
2021/07/21 07:17:29;;;;;;;606.25;530.20;;;20.80;99.90;;;;;;8283382;28;20032;-63
2021/07/21 07:21:29;;;;;;;606.03;531.22;;;20.90;99.90;;;;;;8296022;28;20443;-64
2021/07/21 07:25:30;;;;;;;620.78;553.30;;;21.20;99.90;;;;;;8267485;28;20120;-63
2021/07/21 07:29:31;;;;;;;636.72;568.53;;;21.40;99.90;;;;;;8275770;28;20031;-63
2021/07/21 07:33:31;;;;;;;650.70;582.22;;;21.60;99.90;;;;;;8276599;28;20038;-63
2021/07/21 07:37:32;;;;;;;652.05;583.08;;;21.80;99.90;;;;;;8278762;28;20113;-64
2021/07/21 07:41:33;;;;;;;651.05;582.67;;;22.00;99.90;;;;;;8270581;28;20061;-63
2021/07/21 07:45:34;;;;;;;669.75;600.83;;;22.20;99.90;;;;;;8277516;28;20120;-67
2021/07/21 07:49:35;;;;;;;675.60;606.17;;;22.30;99.90;;;;;;8290743;28;20119;-66
2021/07/21 07:53:35;;;;;;;666.00;597.60;;;22.60;99.90;;;;;;8280233;28;20030;-66
2021/07/21 07:57:36;;;;;;;668.88;600.13;;;22.60;99.90;;;;;;8265424;28;20045;-65
2021/07/21 08:01:37;;;;;;;661.30;592.80;;;22.50;99.90;;;;;;8277415;28;20030;-67
2021/07/21 08:05:38;;;;;;;678.78;609.17;;;22.50;99.90;;;;;;8280823;28;20029;-67
2021/07/21 08:09:38;;;;;;;673.58;604.72;;;22.50;99.90;;;;;;8274038;28;20092;-66
2021/07/21 08:13:40;;;;;;;679.08;609.88;;;22.60;99.90;;;;;;8284942;28;20022;-67
2021/07/21 08:17:41;;;;;;;684.83;615.65;;;22.90;99.90;;;;;;8262488;28;20061;-66
2021/07/21 08:21:42;;;;;;;722.42;651.75;;;23.20;99.90;;;;;;8259305;28;20080;-66
2021/07/21 08:25:44;;;;;;;697.40;627.83;;;23.40;99.90;;;;;;8280280;28;20115;-66
2021/07/21 08:29:44;;;;;;;702.45;632.60;;;23.70;99.90;;;;;;8280845;28;20026;-66
2021/07/21 08:33:45;;;;;;;727.75;656.95;;;23.70;99.90;;;;;;8278721;28;20026;-64
2021/07/21 08:37:46;;;;;;;737.83;666.47;;;23.80;99.90;;;;;;8277337;28;20028;-64
2021/07/21 08:41:47;;;;;;;754.08;682.30;;;23.80;99.90;;;;;;8276176;28;20077;-63
2021/07/21 08:45:48;;;;;;;750.15;678.72;;;24.10;99.90;;;;;;8282185;28;20119;-65
2021/07/21 08:49:49;;;;;;;754.80;683.13;;;24.20;99.90;;;;;;8258735;28;20564;-64
2021/07/21 08:53:51;;;;;;;769.13;697.00;;;24.20;99.90;;;;;;8278533;28;20109;-65
2021/07/21 08:57:52;;;;;;;775.47;703.05;;;24.30;99.90;;;;;;8268702;28;20041;-65
2021/07/21 09:01:53;;;;;;;774.35;702.10;;;24.50;99.90;;;;;;8270925;28;20033;-65
2021/07/21 09:05:53;;;;;;;784.92;711.90;;;24.50;99.90;;;;;;8279582;28;20026;-65
2021/07/21 09:09:54;;;;;;;783.88;710.97;;;24.60;99.90;;;;;;8279642;28;20464;-65
2021/07/21 09:13:55;;;;;;;784.63;711.95;;;24.80;99.90;;;;;;8274971;28;20071;-65
2021/07/21 09:18:12;;;;;;;788.53;715.65;;;24.90;99.90;;;;;;8277554;28;20034;-64
2021/07/21 09:22:19;;;;;;;789.33;716.38;;;25.00;99.90;;;;;;8281993;28;20034;-64
2021/07/21 09:26:23;;;;;;;781.95;709.53;;;25.10;99.90;;;;;;8288721;28;20117;-65
2021/07/21 09:30:27;;;;;;;780.63;708.30;;;24.90;99.90;;;;;;8283562;28;20370;-65
2021/07/21 09:34:29;;;;;;;777.92;706.03;;;25.00;99.90;;;;;;8285256;28;20437;-64
2021/07/21 09:38:31;;;;;;;789.60;717.10;;;25.20;99.90;;;;;;8267433;28;20032;-64
2021/07/21 09:42:32;;;;;;;806.47;733.42;;;25.60;99.90;;;;;;8263118;28;20092;-64
2021/07/21 09:46:34;;;;;;;804.97;731.70;;;25.70;99.90;;;;;;8258732;28;20073;-64
2021/07/21 09:50:38;;;;;;;806.72;733.70;;;25.70;99.90;;;;;;8273025;28;20033;-64
2021/07/21 09:54:38;;;;;;;817.17;743.20;;;25.80;99.90;;;;;;8285943;28;20030;-64
2021/07/21 09:58:40;;;;;;;819.80;746.15;;;26.00;99.90;;;;;;8281195;28;20080;-68
2021/07/21 10:02:41;;;;;;;820.45;747.03;;;25.90;99.90;;;;;;8291526;28;20511;-69
2021/07/21 10:06:41;;;;;;;825.92;752.55;;;26.20;99.90;;;;;;8291554;28;20066;-69
2021/07/21 10:10:42;;;;;;;845.25;770.83;;;26.50;99.90;;;;;;8288533;28;20096;-65
2021/07/21 10:15:03;;;;;;;837.58;763.45;;;26.50;99.90;;;;;;8275384;28;20026;-65
2021/07/21 10:19:11;;;;;;;821.47;748.17;;;26.60;99.90;;;;;;8283310;28;20034;-65
2021/07/21 10:23:15;;;;;;;825.53;752.25;;;26.30;99.90;;;;;;8272992;28;20105;-66
2021/07/21 10:27:16;;;;;;;842.10;768.22;;;26.60;99.90;;;;;;8286682;28;20400;-66
2021/07/21 10:31:17;;;;;;;849.42;774.67;;;27.00;99.90;;;;;;8266903;28;20408;-66
2021/07/21 10:35:19;;;;;;;847.58;772.95;;;26.70;99.90;;;;;;8273717;28;20025;-65
2021/07/21 10:39:27;;;;;;;859.78;784.88;;;26.90;99.90;;;;;;8275972;28;20662;-66
2021/07/21 10:43:31;;;;;;;873.35;797.92;;;27.50;99.90;;;;;;8281158;28;20105;-65
2021/07/21 10:47:32;;;;;;;892.83;816.70;;;28.30;99.90;;;;;;8265806;28;20033;-66
2021/07/21 11:00:43;;;;;;;893.33;817.40;;;29.10;99.90;;;;;;8264743;28;20084;-66
2021/07/21 11:04:46;;;;;;;894.92;819.22;;;29.70;99.90;;;;;;8280459;28;20516;-65
2021/07/21 11:08:48;;;;;;;904.28;827.70;;;29.40;95.10;;;;;;8272401;28;20120;-65
2021/07/21 11:12:49;;;;;;;903.22;827.28;;;29.60;96.40;;;;;;8296260;28;20481;-66
2021/07/21 11:17:08;;;;;;;909.30;832.72;;;29.90;96.60;;;;;;8283162;28;20026;-66
2021/07/21 11:21:10;;;;;;;914.05;837.15;;;29.70;95.20;;;;;;8268501;28;20497;-65
2021/07/21 11:25:19;;;;;;;903.30;827.08;;;28.90;94.90;;;;;;8278808;28;20039;-65
2021/07/21 11:29:27;;;;;;;889.97;814.17;;;28.20;94.00;;;;;;8278575;28;20022;-66
2021/07/21 11:33:50;;;;;;;925.65;848.25;;;28.90;96.10;;;;;;8259713;28;20276;-65
2021/07/21 11:37:50;;;;;;;944.92;866.95;;;32.90;89.70;;;;;;8280706;28;20109;-66
2021/07/21 11:41:51;;;;;;;905.88;830.58;;;35.10;79.40;;;;;;8278046;28;20681;-66
2021/07/21 11:45:52;;;;;;;927.67;851.95;;;35.70;68.90;;;;;;8279679;28;20064;-66
2021/07/21 11:49:53;;;;;;;998.85;919.78;;;37.80;61.70;;;;;;8277835;28;20040;-66
2021/07/21 11:53:54;;;;;;;925.38;851.55;;;38.70;51.50;;;;;;8280483;28;20483;-66
2021/07/21 11:57:55;;;;;;;912.50;840.55;;;39.70;49.80;;;;;;8275507;28;20582;-66
2021/07/21 12:02:11;;;;;;;904.25;832.75;;;41.10;45.40;;;;;;8288736;28;20095;-67
2021/07/21 12:06:22;;;;;;;899.95;827.95;;;39.20;47.90;;;;;;8280163;28;20033;-65
2021/07/21 12:10:23;;;;;;;847.85;778.22;;;36.10;51.30;;;;;;8279250;28;20481;-66
2021/07/21 12:14:26;;;;;;;840.83;771.85;;;33.70;55.50;;;;;;8268764;28;20057;-66
2021/07/21 12:18:28;;;;;;;836.13;767.63;;;33.90;55.90;;;;;;8287947;28;20042;-66
2021/07/21 12:22:32;;;;;;;906.85;833.97;;;34.20;58.80;;;;;;8264648;28;20030;-65
2021/07/21 12:26:45;;;;;;;884.80;813.05;;;34.30;56.40;;;;;;8286070;28;20037;-66
2021/07/21 12:30:47;;;;;;;968.83;891.63;;;33.80;58.60;;;;;;8267791;28;20067;-65
2021/07/21 12:34:49;;;;;;;918.70;844.60;;;33.60;53.90;;;;;;8273291;28;20113;-65
2021/07/21 12:38:51;;;;;;;943.38;867.97;;;32.70;59.60;;;;;;8294009;28;20026;-65
2021/07/21 12:42:54;;;;;;;992.78;913.78;;;33.50;60.30;;;;;;8264821;28;20026;-65
2021/07/21 12:47:18;;;;;;;959.15;883.58;;;34.80;56.60;;;;;;8277286;28;20046;-65
2021/07/21 12:51:18;;;;;;;1027.65;947.35;;;36.10;55.20;;;;;;8284982;28;20033;-65
2021/07/21 12:55:31;;;;;;;1052.70;971.20;;;37.60;52.10;;;;;;8288818;28;20096;-65
2021/07/21 12:59:36;;;;;;;1080.32;995.80;;;39.50;45.70;;;;;;8276637;28;20034;-65
2021/07/21 13:03:46;;;;;;;1093.70;999.90;;;41.20;44.20;;;;;;8288045;28;20049;-65
2021/07/21 13:07:58;;;;;;;1098.72;999.90;;;43.40;41.00;;;;;;8286169;28;20049;-66
2021/07/21 13:11:59;;;;;;;1064.60;984.50;;;45.70;38.90;;;;;;8290490;28;20034;-66
2021/07/21 13:16:11;;;;;;;1086.32;999.20;;;44.20;35.30;;;;;;8261000;28;20133;-65
2021/07/21 13:20:12;;;;;;;1052.10;971.85;;;38.70;40.40;;;;;;8266022;28;20029;-65
2021/07/21 13:24:18;;;;;;;1062.53;981.45;;;38.00;42.90;;;;;;8285885;28;20166;-65
2021/07/21 13:28:23;;;;;;;1033.03;954.75;;;42.20;39.50;;;;;;8274092;28;20034;-65
2021/07/21 13:32:25;;;;;;;1064.63;983.17;;;41.60;35.40;;;;;;8274647;28;20018;-64
2021/07/21 13:36:40;;;;;;;1055.63;975.17;;;41.40;38.80;;;;;;8289390;28;20058;-65
2021/07/21 13:40:40;;;;;;;1079.60;996.00;;;41.20;39.50;;;;;;8253343;28;20516;-65
2021/07/21 13:44:42;;;;;;;1076.15;994.30;;;43.60;36.80;;;;;;8242797;28;20045;-65
2021/07/21 13:48:42;;;;;;;1046.30;966.75;;;42.80;36.40;;;;;;8262710;28;20034;-65
2021/07/21 13:53:01;;;;;;;1074.85;993.10;;;42.90;34.50;;;;;;8287010;28;20022;-65
2021/07/21 13:57:04;;;;;;;1045.95;966.17;;;42.50;36.50;;;;;;8292478;28;20084;-65
2021/07/21 14:01:05;;;;;;;1047.85;967.92;;;42.80;36.90;;;;;;8252150;28;20117;-65
2021/07/21 14:05:06;;;;;;;1066.68;985.85;;;43.70;35.70;;;;;;8286175;28;20113;-65
2021/07/21 14:09:12;;;;;;;1030.30;952.33;;;44.10;34.90;;;;;;8275023;28;20108;-65
2021/07/21 14:13:12;;;;;;;1057.65;976.55;;;40.50;37.50;;;;;;8288858;28;20026;-65
2021/07/21 14:17:13;;;;;;;1010.60;932.78;;;36.90;43.00;;;;;;8266353;28;20037;-65
2021/07/21 14:21:14;;;;;;;1008.40;929.38;;;35.00;47.40;;;;;;8252634;28;20033;-65
2021/07/21 14:25:15;;;;;;;956.78;881.03;;;33.70;50.70;;;;;;8298096;28;20041;-64
2021/07/21 14:29:15;;;;;;;966.58;890.05;;;32.70;52.00;;;;;;8280784;28;20519;-64
2021/07/21 14:33:16;;;;;;;906.25;833.05;;;31.60;53.40;;;;;;8297650;28;20034;-65
2021/07/21 14:37:17;;;;;;;866.90;795.95;;;31.90;52.30;;;;;;8297885;28;20595;-65
2021/07/21 14:41:18;;;;;;;877.20;805.70;;;33.70;48.80;;;;;;8275663;28;20022;-65
2021/07/21 14:45:19;;;;;;;965.63;889.80;;;34.30;48.40;;;;;;8269821;28;20492;-66
2021/07/21 14:49:20;;;;;;;929.97;857.20;;;37.80;44.70;;;;;;8265550;28;20029;-65
2021/07/21 14:53:21;;;;;;;957.75;882.42;;;37.30;42.40;;;;;;8276169;28;20026;-66
2021/07/21 14:57:21;;;;;;;997.58;920.28;;;37.20;45.20;;;;;;8296711;28;20037;-65
2021/07/21 15:01:22;;;;;;;995.25;918.63;;;38.90;40.80;;;;;;8289113;28;20076;-65
2021/07/21 15:05:23;;;;;;;1016.42;938.15;;;38.20;42.10;;;;;;8281264;28;20133;-65
2021/07/21 15:09:23;;;;;;;1021.42;944.03;;;39.00;42.40;;;;;;8295408;28;20112;-68
2021/07/21 15:13:24;;;;;;;1062.40;982.38;;;40.60;40.80;;;;;;8295308;28;20428;-66
2021/07/21 15:17:24;;;;;;;1080.35;997.08;;;42.30;39.00;;;;;;8274184;28;20042;-66
2021/07/21 15:21:25;;;;;;;1094.88;999.90;;;43.20;38.20;;;;;;8272275;28;20089;-66
2021/07/21 15:25:26;;;;;;;1110.57;999.90;;;44.00;36.20;;;;;;8286366;28;20041;-66
2021/07/21 15:29:28;;;;;;;1107.15;999.90;;;44.70;34.40;;;;;;8288187;28;20503;-66
2021/07/21 15:33:29;;;;;;;1117.32;999.90;;;45.10;34.30;;;;;;8285227;28;20025;-66
2021/07/21 15:37:29;;;;;;;1119.00;999.90;;;45.40;33.50;;;;;;8283472;28;20022;-66
2021/07/21 15:41:30;;;;;;;1112.05;999.90;;;45.30;34.90;;;;;;8256611;28;20329;-66
2021/07/21 15:45:31;;;;;;;1112.28;999.90;;;44.80;34.30;;;;;;8287302;28;20026;-66
2021/07/21 15:49:32;;;;;;;1099.53;999.90;;;44.10;34.20;;;;;;8268266;28;20084;-66
2021/07/21 15:53:32;;;;;;;1086.60;999.30;;;44.50;34.50;;;;;;8281907;28;20054;-66
2021/07/21 15:57:33;;;;;;;1063.72;984.47;;;43.30;33.60;;;;;;8228434;28;1038643;-65
2021/07/21 16:01:36;;;;;;;1048.53;970.75;;;42.30;34.80;;;;;;8279299;28;20037;-66
2021/07/21 16:05:40;;;;;;;1060.75;982.13;;;43.70;34.40;;;;;;8294839;28;20022;-65
2021/07/21 16:09:41;;;;;;;1052.68;975.03;;;44.80;33.70;;;;;;8294470;28;20033;-66
2021/07/21 16:13:42;;;;;;;1064.57;986.03;;;45.70;31.60;;;;;;8294262;28;20357;-66
2021/07/21 16:17:43;;;;;;;1072.57;992.83;;;45.80;32.20;;;;;;8247574;28;20030;-66
2021/07/21 16:21:45;;;;;;;1059.65;981.90;;;45.10;33.40;;;;;;8261789;28;20412;-66
2021/07/21 16:25:46;;;;;;;1042.05;965.08;;;45.20;31.30;;;;;;8289099;28;20029;-66
2021/07/21 16:29:47;;;;;;;1083.35;998.58;;;45.20;31.80;;;;;;8292980;28;20078;-66
2021/07/21 16:33:48;;;;;;;1051.00;973.70;;;45.30;31.50;;;;;;8276142;28;20033;-66
2021/07/21 16:37:48;;;;;;;1037.80;961.40;;;43.60;32.70;;;;;;8276924;28;20030;-66
2021/07/21 16:41:49;;;;;;;1042.10;965.15;;;43.10;34.10;;;;;;8276025;28;20101;-65
2021/07/21 16:45:50;;;;;;;1022.03;946.83;;;43.70;34.60;;;;;;8272047;28;20080;-66
2021/07/21 16:49:50;;;;;;;1021.13;945.90;;;44.10;33.00;;;;;;8254615;28;20085;-66
2021/07/21 16:53:51;;;;;;;1051.88;974.08;;;44.10;33.40;;;;;;8263126;28;20057;-66
2021/07/21 16:57:53;;;;;;;1068.18;989.15;;;44.00;33.20;;;;;;8260712;28;20026;-66
2021/07/21 17:01:53;;;;;;;1020.72;945.60;;;44.10;34.50;;;;;;8258552;28;20033;-66
2021/07/21 17:05:54;;;;;;;1011.47;936.42;;;43.70;32.70;;;;;;8275420;28;20520;-66
2021/07/21 17:09:54;;;;;;;989.20;915.80;;;42.90;34.50;;;;;;8288311;28;20493;-66
2021/07/21 17:13:55;;;;;;;994.70;920.47;;;42.70;34.10;;;;;;8270377;28;20092;-65
2021/07/21 17:17:55;;;;;;;1024.50;947.75;;;41.00;35.20;;;;;;8307115;28;20053;-65
2021/07/21 17:21:56;;;;;;;970.53;897.13;;;39.80;36.30;;;;;;8290170;28;20030;-67
2021/07/21 17:25:57;;;;;;;921.78;850.65;;;39.50;38.40;;;;;;8293057;28;20037;-65
2021/07/21 17:29:57;;;;;;;871.42;802.40;;;35.70;42.50;;;;;;8265193;28;20131;-65
2021/07/21 17:33:58;;;;;;;843.95;775.35;;;33.10;47.10;;;;;;8275918;28;20022;-65
2021/07/21 17:37:59;;;;;;;793.08;726.42;;;31.90;51.20;;;;;;8280144;28;20087;-65
2021/07/21 17:41:59;;;;;;;763.85;697.65;;;31.00;52.40;;;;;;8285208;28;20697;-67
2021/07/21 17:46:00;;;;;;;743.78;677.50;;;29.80;55.40;;;;;;8265443;28;20037;-67
2021/07/21 17:50:05;;;;;;;733.17;667.20;;;29.10;57.10;;;;;;8282905;28;20030;-66
2021/07/21 17:54:09;;;;;;;720.33;654.15;;;28.50;60.90;;;;;;8287105;28;20026;-67
2021/07/21 17:58:09;;;;;;;643.90;581.03;;;27.90;62.70;;;;;;8286771;28;20025;-66
2021/07/21 18:02:10;;;;;;;642.60;578.92;;;27.20;61.50;;;;;;8268572;28;20030;-67
2021/07/21 18:06:18;;;;;;;605.10;543.00;;;26.50;65.70;;;;;;8272920;28;20146;-66
2021/07/21 18:10:20;;;;;;;602.90;540.08;;;26.50;65.20;;;;;;8273878;28;20508;-64
2021/07/21 18:14:20;;;;;;;568.03;506.90;;;26.30;64.90;;;;;;8273633;28;20109;-64
2021/07/21 18:18:21;;;;;;;543.67;483.95;;;25.50;68.50;;;;;;8245900;28;20029;-63
2021/07/21 18:22:21;;;;;;;554.63;487.27;;;24.80;71.20;;;;;;8263816;28;20026;-63
2021/07/21 18:26:22;;;;;;;541.10;463.20;;;24.30;73.50;;;;;;8280267;28;20026;-63
2021/07/21 18:30:23;;;;;;;721.30;650.63;;;23.90;75.10;;;;;;8276045;28;20061;-63
2021/07/21 18:34:23;;;;;;;717.17;646.33;;;23.60;78.40;;;;;;8276169;28;20026;-64
2021/07/21 18:38:25;;;;;;;727.10;656.10;;;23.50;79.10;;;;;;8267332;28;20424;-63
2021/07/21 18:42:25;;;;;;;717.28;646.72;;;23.40;81.00;;;;;;8286875;28;20037;-64
2021/07/21 18:46:26;;;;;;;698.15;628.58;;;23.20;83.00;;;;;;8268247;28;20548;-64
2021/07/21 18:50:27;;;;;;;719.20;648.00;;;23.10;84.30;;;;;;8253051;28;20022;-64
2021/07/21 18:54:28;;;;;;;722.30;651.42;;;22.90;89.60;;;;;;8246320;28;20026;-65
2021/07/21 18:58:29;;;;;;;707.30;637.00;;;22.60;92.50;;;;;;8292431;28;20121;-65
2021/07/21 19:02:29;;;;;;;653.95;585.88;;;22.60;92.50;;;;;;8279824;28;20038;-64
2021/07/21 19:06:30;;;;;;;665.63;596.30;;;22.50;94.60;;;;;;8279653;28;20046;-65
2021/07/21 19:10:31;;;;;;;659.45;590.83;;;22.20;98.00;;;;;;8271048;28;20029;-64
2021/07/21 19:14:32;;;;;;;622.92;555.40;;;21.90;99.90;;;;;;8275057;28;20027;-64
2021/07/21 19:18:32;;;;;;;583.88;501.88;;;21.90;99.90;;;;;;8297866;28;20034;-63
2021/07/21 19:22:33;;;;;;;544.97;426.08;;;21.60;99.90;;;;;;8274323;28;20033;-64
2021/07/21 19:26:34;;;;;;;532.17;400.42;;;21.40;99.90;;;;;;8274869;28;20022;-64
2021/07/21 19:30:35;;;;;;;548.53;414.75;;;21.00;99.90;;;;;;8280664;28;20030;-64
2021/07/21 19:34:36;;;;;;;537.03;389.65;;;20.70;99.90;;;;;;8279122;28;20500;-64
2021/07/21 19:38:40;;;;;;;540.25;398.92;;;20.40;99.90;;;;;;8285229;28;20033;-64
2021/07/21 19:42:41;;;;;;;545.40;409.50;;;20.20;99.90;;;;;;8276401;28;20026;-64
2021/07/21 19:46:43;;;;;;;528.90;366.75;;;20.30;99.90;;;;;;8274659;28;20492;-64
2021/07/21 19:50:43;;;;;;;529.53;368.17;;;20.10;99.90;;;;;;8257040;28;20037;-64
2021/07/21 19:54:45;;;;;;;524.45;356.38;;;19.90;99.90;;;;;;8273222;28;20112;-64
2021/07/21 19:58:49;;;;;;;528.75;363.45;;;19.70;99.90;;;;;;8277767;28;20065;-64
2021/07/21 20:02:49;;;;;;;529.63;362.00;;;19.60;99.90;;;;;;8270085;28;20033;-65